createdAt,value
2022-09-07T00:08:19.587Z,49.90
2022-09-07T00:23:21.076Z,50.00
2022-09-07T00:38:22.554Z,50.20
2022-09-07T00:53:24.033Z,50.30
2022-09-07T01:08:25.543Z,50.30
2022-09-07T01:23:27.033Z,50.40
2022-09-07T01:38:28.570Z,50.40
2022-09-07T01:53:30.114Z,50.40
2022-09-07T02:08:31.747Z,50.40
2022-09-07T02:23:33.366Z,50.50
2022-09-07T02:38:34.854Z,50.60
2022-09-07T02:53:36.334Z,50.70
2022-09-07T03:08:37.817Z,50.70
2022-09-07T03:23:39.302Z,50.80
2022-09-07T03:38:40.778Z,50.90
2022-09-07T03:53:42.257Z,50.90
2022-09-07T04:08:43.741Z,51.00
2022-09-07T04:23:45.264Z,51.00
2022-09-07T04:38:46.756Z,51.10
2022-09-07T04:53:48.246Z,51.20
2022-09-07T05:08:49.745Z,51.20
2022-09-07T05:23:51.232Z,51.30
2022-09-07T05:38:52.717Z,51.40
2022-09-07T05:53:54.211Z,51.40
2022-09-07T06:08:55.702Z,51.50
2022-09-07T06:23:57.182Z,51.50
2022-09-07T06:38:58.720Z,52.00
2022-09-07T07:09:21.669Z,52.50
2022-09-07T07:24:23.161Z,52.20
2022-09-07T07:54:46.096Z,51.90
2022-09-07T08:09:47.558Z,51.90
2022-09-07T08:24:49.003Z,52.10
2022-09-07T08:39:50.529Z,52.00
2022-09-07T08:54:52.036Z,52.00
2022-09-07T09:09:53.491Z,51.80
2022-09-07T09:24:54.956Z,51.80
2022-09-07T09:39:59.252Z,51.60
2022-09-07T09:55:23.585Z,51.20
2022-09-07T10:10:25.913Z,51.30
2022-09-07T10:25:27.439Z,51.30
2022-09-07T10:40:28.899Z,50.90
2022-09-07T10:55:30.358Z,50.50
2022-09-07T11:10:31.818Z,51.10
2022-09-07T11:25:33.291Z,49.20
2022-09-07T11:40:34.757Z,47.20
2022-09-07T11:55:36.221Z,45.80
2022-09-07T12:10:37.665Z,45.70
2022-09-07T12:25:40.246Z,45.60
2022-09-07T12:40:41.719Z,46.20
2022-09-07T13:11:04.623Z,44.90
2022-09-07T13:26:06.082Z,45.20
2022-09-07T13:41:07.538Z,45.30
2022-09-07T13:56:09.037Z,45.20
2022-09-07T14:11:10.494Z,45.30
2022-09-07T14:26:19.227Z,45.80
2022-09-07T14:41:20.784Z,46.00
2022-09-07T14:56:22.227Z,46.30
2022-09-07T15:11:38.980Z,46.50
2022-09-07T15:42:59.662Z,47.10
2022-09-07T16:13:01.916Z,47.80
2022-09-07T16:28:04.113Z,48.00
2022-09-07T16:43:05.569Z,48.20
2022-09-07T17:13:28.454Z,48.20
2022-09-07T17:28:32.231Z,48.30
2022-09-07T17:43:45.220Z,48.50
2022-09-07T17:58:47.450Z,48.60
2022-09-07T18:13:49.075Z,49.10
2022-09-07T18:29:10.824Z,48.70
2022-09-07T18:59:33.397Z,49.20
2022-09-07T19:14:34.868Z,49.40
2022-09-07T19:29:36.340Z,49.50
2022-09-07T19:44:37.778Z,49.60
2022-09-07T19:59:39.212Z,49.70
2022-09-07T20:14:40.685Z,49.90
2022-09-07T20:29:42.137Z,50.00
2022-09-07T20:44:43.606Z,50.10
2022-09-07T20:59:45.051Z,50.30
2022-09-07T21:14:46.509Z,50.50
2022-09-07T21:29:47.960Z,50.80
2022-09-07T21:44:49.415Z,51.10
2022-09-07T21:59:50.868Z,51.00
2022-09-07T22:14:52.326Z,51.10
2022-09-07T22:29:53.769Z,51.20
2022-09-07T22:44:55.206Z,51.40
2022-09-07T22:59:56.646Z,51.40
2022-09-07T23:14:58.106Z,51.50
2022-09-07T23:29:59.550Z,51.60
2022-09-07T23:45:01.000Z,51.60
